Time;durP1;ratioP1;P1;durP2;ratioP2;P2;SDS_P1;SDS_P2;PMS_P1;PMS_P2;Temp;Humidity;BMP_temperature;BMP_pressure;BME280_temperature;BME280_humidity;BME280_pressure;Samples;Min_cycle;Max_cycle;Signal;HPM_P1;HPM_P2
2023/01/08 00:01:17;;;;;;;;;;;3.40;99.90;;;;;;5040890;28;19921;-68
2023/01/08 00:03:45;;;;;;;;;;;3.40;99.90;;;;;;5041379;28;19921;-69
2023/01/08 00:06:13;;;;;;;;;;;3.30;99.90;;;;;;5040568;28;19927;-69
2023/01/08 00:08:40;;;;;;;;;;;3.30;99.90;;;;;;5041381;28;19921;-69
2023/01/08 00:11:07;;;;;;;;;;;3.20;99.90;;;;;;5041155;28;19927;-69
2023/01/08 00:13:34;;;;;;;;;;;3.20;99.90;;;;;;5041222;28;19957;-69
2023/01/08 00:16:03;;;;;;;;;;;3.20;99.90;;;;;;5040872;28;20248;-69
2023/01/08 00:18:29;;;;;;;;;;;3.20;99.90;;;;;;5040809;28;20184;-69
2023/01/08 00:20:57;;;;;;;;;;;3.20;99.90;;;;;;5041311;28;20000;-69
2023/01/08 00:23:24;;;;;;;;;;;3.00;99.90;;;;;;5041251;28;19992;-69
2023/01/08 00:25:51;;;;;;;;;;;3.00;99.90;;;;;;5040219;28;19956;-69
2023/01/08 00:28:19;;;;;;;;;;;3.00;99.90;;;;;;5040814;28;19953;-69
2023/01/08 00:30:46;;;;;;;;;;;3.00;99.90;;;;;;5040811;28;19925;-68
2023/01/08 00:33:13;;;;;;;;;;;2.90;99.90;;;;;;5040772;28;19928;-68
2023/01/08 00:35:40;;;;;;;;;;;2.90;99.90;;;;;;5040605;28;20021;-69
2023/01/08 00:38:08;;;;;;;;;;;2.90;99.90;;;;;;5040343;28;20236;-69
2023/01/08 00:40:35;;;;;;;;;;;2.80;99.90;;;;;;5040854;28;19921;-68
2023/01/08 00:43:02;;;;;;;;;;;2.80;99.90;;;;;;5040650;28;19980;-68
2023/01/08 00:45:29;;;;;;;;;;;2.80;99.90;;;;;;5040307;28;19921;-69
2023/01/08 00:47:59;;;;;;;;;;;2.80;99.90;;;;;;5038441;28;19931;-68
2023/01/08 00:50:25;;;;;;;;;;;2.70;99.90;;;;;;5040643;28;19980;-69
2023/01/08 00:52:52;;;;;;;;;;;2.70;99.90;;;;;;5040670;28;19930;-68
2023/01/08 00:55:20;;;;;;;;;;;2.60;99.90;;;;;;5040244;28;19960;-68
2023/01/08 00:57:46;;;;;;;;;;;2.60;99.90;;;;;;5040102;28;19927;-68
2023/01/08 01:00:14;;;;;;;;;;;2.60;99.90;;;;;;5040361;28;20339;-68
2023/01/08 01:02:41;;;;;;;;;;;2.60;99.90;;;;;;5040583;28;19928;-68
2023/01/08 01:05:09;;;;;;;;;;;2.60;99.90;;;;;;5040258;28;19989;-68
2023/01/08 01:07:36;;;;;;;;;;;2.60;99.90;;;;;;5039766;28;19921;-69
2023/01/08 01:10:02;;;;;;;;;;;2.60;99.90;;;;;;5040299;28;19921;-68
2023/01/08 01:12:30;;;;;;;;;;;2.60;99.90;;;;;;5040673;28;19957;-69
2023/01/08 01:14:57;;;;;;;;;;;2.60;99.90;;;;;;5044779;28;19991;-70
2023/01/08 01:17:24;;;;;;;;;;;2.50;99.90;;;;;;5059665;28;19984;-68
2023/01/08 01:19:50;;;;;;;;;;;2.50;99.90;;;;;;5060375;27;19956;-69
2023/01/08 01:22:17;;;;;;;;;;;2.50;99.90;;;;;;5059853;27;19928;-69
2023/01/08 01:24:44;;;;;;;;;;;2.50;99.90;;;;;;5060330;27;19952;-69
2023/01/08 01:27:10;;;;;;;;;;;2.40;99.90;;;;;;5059825;27;19988;-68
2023/01/08 01:29:38;;;;;;;;;;;2.40;99.90;;;;;;5060250;27;20163;-69
2023/01/08 01:32:05;;;;;;;;;;;2.40;99.90;;;;;;5060405;27;19921;-70
2023/01/08 01:34:32;;;;;;;;;;;2.40;99.90;;;;;;5060080;27;19921;-68
2023/01/08 01:36:59;;;;;;;;;;;2.40;99.90;;;;;;5060102;27;19984;-69
2023/01/08 01:39:25;;;;;;;;;;;2.50;99.90;;;;;;5104030;27;19926;-68
2023/01/08 01:41:52;;;;;;;;;;;2.40;99.90;;;;;;5168738;27;19925;-69
2023/01/08 01:44:40;;;;;;;;;;;2.40;99.90;;;;;;5168909;27;19923;-69
2023/01/08 01:47:12;;;;;;;;;;;2.40;99.90;;;;;;5129117;27;19943;-68
2023/01/08 01:49:40;;;;;;;;;;;2.30;99.90;;;;;;5043307;28;19921;-68
2023/01/08 01:52:07;;;;;;;;;;;2.30;99.90;;;;;;5043336;28;19921;-68
2023/01/08 01:54:35;;;;;;;;;;;2.30;99.90;;;;;;5043203;28;19987;-68
2023/01/08 01:57:02;;;;;;;;;;;2.20;99.90;;;;;;5042804;28;19953;-68
2023/01/08 01:59:29;;;;;;;;;;;2.10;99.90;;;;;;5043061;27;19928;-69
2023/01/08 02:01:56;;;;;;;;;;;2.10;99.90;;;;;;5063321;28;20063;-68
2023/01/08 02:04:24;;;;;;;;;;;2.10;99.90;;;;;;5063159;28;20151;-68
2023/01/08 02:06:55;;;;;;;;;;;2.10;99.90;;;;;;5062165;28;20236;-69
2023/01/08 02:09:27;;;;;;;;;;;2.00;99.90;;;;;;5063085;28;20116;-68
2023/01/08 02:14:42;;;;;;;;;;;2.00;99.90;;;;;;5063908;27;19921;-68
2023/01/08 02:17:10;;;;;;;;;;;2.10;99.90;;;;;;5062392;28;19983;-68
2023/01/08 02:19:42;;;;;;;;;;;2.00;99.90;;;;;;5056402;28;19929;-68
2023/01/08 02:22:14;;;;;;;;;;;2.10;99.90;;;;;;5128575;27;19951;-69
2023/01/08 02:24:51;;;;;;;;;;;2.10;99.90;;;;;;5167900;27;20160;-69
2023/01/08 02:27:20;;;;;;;;;;;2.10;99.90;;;;;;5167514;27;19919;-68
2023/01/08 02:29:47;;;;;;;;;;;2.10;99.90;;;;;;5168132;27;19946;-68
2023/01/08 02:32:14;;;;;;;;;;;2.00;99.90;;;;;;5168040;27;19919;-68
2023/01/08 02:34:41;;;;;;;;;;;2.10;99.90;;;;;;5167585;27;19957;-68
2023/01/08 02:37:08;;;;;;;;;;;2.10;99.90;;;;;;5167128;27;19943;-68
2023/01/08 02:39:44;;;;;;;;;;;2.00;99.90;;;;;;5076794;27;19980;-69
2023/01/08 02:42:14;;;;;;;;;;;2.00;99.90;;;;;;5062106;28;19921;-69
2023/01/08 02:44:47;;;;;;;;;;;1.90;99.90;;;;;;5061938;28;19927;-68
2023/01/08 02:47:18;;;;;;;;;;;2.00;99.90;;;;;;5061502;28;19991;-68
2023/01/08 02:49:46;;;;;;;;;;;1.90;99.90;;;;;;5062114;28;19921;-68
2023/01/08 02:52:13;;;;;;;;;;;2.00;99.90;;;;;;5062414;28;19983;-68
2023/01/08 02:54:42;;;;;;;;;;;1.90;99.90;;;;;;5062303;28;19991;-69
2023/01/08 02:57:10;;;;;;;;;;;2.00;99.90;;;;;;5061437;28;19948;-68
2023/01/08 02:59:37;;;;;;;;;;;2.00;99.90;;;;;;5061875;28;20221;-68
2023/01/08 03:02:06;;;;;;;;;;;1.90;99.90;;;;;;5062212;28;19991;-68
2023/01/08 03:04:36;;;;;;;;;;;2.00;99.90;;;;;;5061878;28;19921;-69
2023/01/08 03:07:03;;;;;;;;;;;1.90;99.90;;;;;;5061541;28;19921;-68
2023/01/08 03:09:30;;;;;;;;;;;1.90;99.90;;;;;;5062111;28;19984;-68
2023/01/08 03:12:00;;;;;;;;;;;1.90;99.90;;;;;;5061864;28;20231;-68
2023/01/08 03:14:28;;;;;;;;;;;1.90;99.90;;;;;;5061978;28;19955;-68
2023/01/08 03:16:58;;;;;;;;;;;1.90;99.90;;;;;;5060960;28;19982;-68
2023/01/08 03:19:28;;;;;;;;;;;1.90;99.90;;;;;;5061511;28;19921;-70
2023/01/08 03:21:56;;;;;;;;;;;1.90;99.90;;;;;;5123555;27;19954;-68
2023/01/08 03:24:25;;;;;;;;;;;1.90;99.90;;;;;;5166637;27;20256;-68
2023/01/08 03:26:53;;;;;;;;;;;1.90;99.90;;;;;;5165971;27;19919;-68
2023/01/08 03:29:23;;;;;;;;;;;2.00;99.90;;;;;;5166472;27;19919;-69
2023/01/08 03:31:50;;;;;;;;;;;2.00;99.90;;;;;;5140579;27;20269;-68
2023/01/08 03:34:19;;;;;;;;;;;2.00;99.90;;;;;;5061858;27;19979;-69
2023/01/08 03:36:49;;;;;;;;;;;2.10;99.90;;;;;;5060940;27;20077;-68
2023/01/08 03:39:17;;;;;;;;;;;2.00;99.90;;;;;;5061443;27;19920;-68
2023/01/08 03:41:43;;;;;;;;;;;2.00;99.90;;;;;;5062112;28;19984;-69
2023/01/08 03:44:10;;;;;;;;;;;2.00;99.90;;;;;;5061389;28;19996;-69
2023/01/08 03:46:38;;;;;;;;;;;2.00;99.90;;;;;;5061073;27;20152;-69
2023/01/08 03:49:06;;;;;;;;;;;2.00;99.90;;;;;;5086359;27;20174;-68
2023/01/08 03:51:39;;;;;;;;;;;2.10;99.90;;;;;;5122833;27;19953;-69
2023/01/08 03:54:09;;;;;;;;;;;2.00;99.90;;;;;;5166324;27;19989;-68
2023/01/08 03:56:35;;;;;;;;;;;2.10;99.90;;;;;;5165719;27;20143;-69
2023/01/08 03:59:02;;;;;;;;;;;2.00;99.90;;;;;;5165799;27;19983;-68
2023/01/08 04:01:28;;;;;;;;;;;2.10;99.90;;;;;;5156369;27;19961;-68
2023/01/08 04:03:55;;;;;;;;;;;2.10;99.90;;;;;;5041232;28;19921;-68
2023/01/08 04:06:22;;;;;;;;;;;2.10;99.90;;;;;;5040484;28;19921;-68
2023/01/08 04:08:48;;;;;;;;;;;2.10;99.90;;;;;;5041163;28;19984;-68
2023/01/08 04:11:16;;;;;;;;;;;2.10;99.90;;;;;;5041156;28;20028;-68
2023/01/08 04:13:43;;;;;;;;;;;2.20;99.90;;;;;;5040953;28;20000;-68
2023/01/08 04:16:10;;;;;;;;;;;2.20;99.90;;;;;;5040242;28;20157;-69
2023/01/08 04:18:36;;;;;;;;;;;2.20;99.90;;;;;;5041194;28;19959;-68
2023/01/08 04:21:03;;;;;;;;;;;2.20;99.90;;;;;;5040986;28;19945;-69
2023/01/08 04:23:29;;;;;;;;;;;2.20;99.90;;;;;;5041299;28;19922;-68
2023/01/08 04:25:56;;;;;;;;;;;2.30;99.90;;;;;;5040940;28;19963;-69
2023/01/08 04:28:24;;;;;;;;;;;2.30;99.90;;;;;;5041081;28;20157;-69
2023/01/08 04:30:52;;;;;;;;;;;2.30;99.90;;;;;;5045070;28;19921;-69
2023/01/08 04:33:18;;;;;;;;;;;2.30;99.90;;;;;;5080770;28;19956;-68
2023/01/08 04:35:45;;;;;;;;;;;2.30;99.90;;;;;;5080417;28;20173;-69
2023/01/08 04:38:12;;;;;;;;;;;2.30;99.90;;;;;;5080204;28;19955;-68
2023/01/08 04:40:38;;;;;;;;;;;2.30;99.90;;;;;;5080820;28;19952;-68
2023/01/08 04:43:05;;;;;;;;;;;2.30;99.90;;;;;;5078481;28;20186;-68
2023/01/08 04:45:33;;;;;;;;;;;2.30;99.90;;;;;;5080263;28;19929;-69
2023/01/08 04:48:00;;;;;;;;;;;2.30;99.90;;;;;;5080316;28;19921;-68
2023/01/08 04:50:27;;;;;;;;;;;2.30;99.90;;;;;;5080662;28;19927;-69
2023/01/08 04:52:58;;;;;;;;;;;2.30;99.90;;;;;;5078480;28;19935;-69
2023/01/08 04:55:25;;;;;;;;;;;2.40;99.90;;;;;;5080123;28;19987;-68
2023/01/08 04:57:51;;;;;;;;;;;2.40;99.90;;;;;;5080097;28;19920;-70
2023/01/08 05:00:18;;;;;;;;;;;2.40;99.90;;;;;;5080130;28;19927;-67
2023/01/08 05:02:46;;;;;;;;;;;2.40;99.90;;;;;;5080307;28;19955;-68
2023/01/08 05:05:12;;;;;;;;;;;2.40;99.90;;;;;;5080489;28;19984;-68
2023/01/08 05:07:39;;;;;;;;;;;2.40;99.90;;;;;;5079632;28;19944;-68
2023/01/08 05:10:06;;;;;;;;;;;2.40;99.90;;;;;;5080414;28;19947;-69
2023/01/08 05:12:33;;;;;;;;;;;2.50;99.90;;;;;;5083391;28;19991;-69
2023/01/08 05:15:00;;;;;;;;;;;2.50;99.90;;;;;;5072420;28;19964;-68
2023/01/08 05:17:26;;;;;;;;;;;2.50;99.90;;;;;;5063096;27;19995;-68
2023/01/08 05:19:54;;;;;;;;;;;2.50;99.90;;;;;;5063585;28;19999;-68
2023/01/08 05:22:21;;;;;;;;;;;2.50;99.90;;;;;;5050568;27;19928;-68
2023/01/08 05:24:48;;;;;;;;;;;2.50;99.90;;;;;;5043654;28;19953;-69
2023/01/08 05:27:14;;;;;;;;;;;2.50;99.90;;;;;;5042898;28;19984;-70
2023/01/08 05:29:41;;;;;;;;;;;2.60;99.90;;;;;;5043397;28;20165;-69
2023/01/08 05:32:13;;;;;;;;;;;2.50;99.90;;;;;;5043955;28;19949;-70
2023/01/08 05:34:40;;;;;;;;;;;2.50;99.90;;;;;;5043831;28;19949;-69
2023/01/08 05:37:08;;;;;;;;;;;2.50;99.90;;;;;;5042736;28;19984;-68
2023/01/08 05:39:35;;;;;;;;;;;2.50;99.90;;;;;;5043369;28;20205;-68
2023/01/08 05:42:01;;;;;;;;;;;2.50;99.90;;;;;;5043424;28;19989;-68
2023/01/08 05:44:28;;;;;;;;;;;2.50;99.90;;;;;;5043438;28;19980;-68
2023/01/08 05:46:54;;;;;;;;;;;2.60;99.90;;;;;;5042675;28;19957;-68
2023/01/08 05:49:22;;;;;;;;;;;2.60;99.90;;;;;;5043371;28;19921;-68
2023/01/08 05:51:49;;;;;;;;;;;2.60;99.90;;;;;;5043550;28;19921;-68
2023/01/08 05:54:17;;;;;;;;;;;2.60;99.90;;;;;;5043438;28;19980;-69
2023/01/08 05:56:44;;;;;;;;;;;2.60;99.90;;;;;;5042401;28;19965;-68
2023/01/08 05:59:10;;;;;;;;;;;2.70;99.90;;;;;;5043299;28;19984;-68
2023/01/08 06:01:39;;;;;;;;;;;2.70;99.90;;;;;;5049535;28;19928;-69
2023/01/08 06:04:06;;;;;;;;;;;2.70;99.90;;;;;;5050693;27;19967;-69
2023/01/08 06:06:33;;;;;;;;;;;2.80;99.90;;;;;;5042488;28;19921;-70
2023/01/08 06:08:59;;;;;;;;;;;2.80;99.90;;;;;;5043157;27;19921;-68
2023/01/08 06:11:29;;;;;;;;;;;2.80;99.90;;;;;;5041702;28;20061;-69
2023/01/08 06:13:56;;;;;;;;;;;2.90;99.90;;;;;;5043149;28;20403;-68
2023/01/08 06:16:23;;;;;;;;;;;2.90;99.90;;;;;;5139752;27;19990;-68
2023/01/08 06:18:49;;;;;;;;;;;3.00;99.90;;;;;;5168495;27;19961;-68
2023/01/08 06:21:16;;;;;;;;;;;3.00;99.90;;;;;;5168531;27;20178;-69
2023/01/08 06:23:42;;;;;;;;;;;3.10;99.90;;;;;;5167401;27;19925;-69
2023/01/08 06:26:09;;;;;;;;;;;3.10;99.90;;;;;;5167669;27;19958;-69
2023/01/08 06:28:37;;;;;;;;;;;3.20;99.90;;;;;;5168289;27;19962;-69
2023/01/08 06:31:04;;;;;;;;;;;3.20;99.90;;;;;;5167942;27;19982;-68
2023/01/08 06:33:31;;;;;;;;;;;3.20;99.90;;;;;;5167933;27;20203;-69
2023/01/08 06:35:59;;;;;;;;;;;3.30;99.90;;;;;;5076406;27;19928;-69
2023/01/08 06:38:26;;;;;;;;;;;3.30;99.90;;;;;;5062641;27;19963;-70
2023/01/08 06:40:52;;;;;;;;;;;3.30;99.90;;;;;;5062199;28;19978;-69
2023/01/08 06:43:20;;;;;;;;;;;3.30;99.90;;;;;;5062505;28;19960;-69
2023/01/08 06:45:54;;;;;;;;;;;3.40;99.90;;;;;;5062023;27;20008;-69
2023/01/08 06:48:27;;;;;;;;;;;3.40;99.90;;;;;;5041926;27;19921;-69
2023/01/08 06:50:53;;;;;;;;;;;3.40;99.90;;;;;;5042564;28;19984;-69
2023/01/08 06:53:20;;;;;;;;;;;3.40;99.90;;;;;;5042682;28;20108;-68
2023/01/08 06:55:47;;;;;;;;;;;3.40;99.90;;;;;;5041882;28;19921;-69
2023/01/08 06:58:13;;;;;;;;;;;3.40;99.90;;;;;;5042223;28;19988;-68
2023/01/08 07:00:40;;;;;;;;;;;3.50;99.90;;;;;;5042286;28;19932;-68
2023/01/08 07:03:11;;;;;;;;;;;3.50;99.90;;;;;;5040143;28;19921;-68
2023/01/08 07:05:38;;;;;;;;;;;3.50;99.90;;;;;;5041833;28;19960;-69
2023/01/08 07:08:05;;;;;;;;;;;3.50;99.90;;;;;;5041685;28;19963;-69
2023/01/08 07:10:31;;;;;;;;;;;3.60;99.90;;;;;;5042043;28;20236;-69
2023/01/08 07:12:58;;;;;;;;;;;3.60;99.90;;;;;;5041929;28;19947;-69
2023/01/08 07:15:25;;;;;;;;;;;3.60;99.90;;;;;;5050953;28;19927;-69
2023/01/08 07:17:51;;;;;;;;;;;3.60;99.90;;;;;;5061456;27;20283;-68
2023/01/08 07:20:19;;;;;;;;;;;3.60;99.90;;;;;;5061876;27;19956;-69
2023/01/08 07:22:46;;;;;;;;;;;3.60;99.90;;;;;;5061838;27;19956;-69
2023/01/08 07:25:13;;;;;;;;;;;3.60;99.90;;;;;;5061881;28;19959;-68
2023/01/08 07:27:39;;;;;;;;;;;3.60;99.90;;;;;;5061489;27;19971;-69
2023/01/08 07:30:07;;;;;;;;;;;3.60;99.90;;;;;;5053661;27;20251;-69
2023/01/08 07:32:33;;;;;;;;;;;3.50;99.90;;;;;;5041743;28;19952;-70
2023/01/08 07:35:00;;;;;;;;;;;3.60;99.90;;;;;;5040485;28;19956;-68
2023/01/08 07:37:28;;;;;;;;;;;3.60;99.90;;;;;;5041259;28;19928;-70
2023/01/08 07:39:55;;;;;;;;;;;3.60;99.90;;;;;;5041500;28;19984;-69
2023/01/08 07:42:21;;;;;;;;;;;3.60;99.90;;;;;;5041811;28;19953;-69
2023/01/08 07:44:48;;;;;;;;;;;3.60;99.90;;;;;;5041771;28;19952;-69
2023/01/08 07:47:14;;;;;;;;;;;3.60;99.90;;;;;;5041241;28;20001;-69
2023/01/08 07:49:41;;;;;;;;;;;3.60;99.90;;;;;;5041754;28;19996;-69
2023/01/08 07:52:08;;;;;;;;;;;3.70;99.90;;;;;;5045705;28;19988;-69
2023/01/08 07:54:36;;;;;;;;;;;3.70;99.90;;;;;;5068111;28;19956;-69
2023/01/08 07:57:02;;;;;;;;;;;3.80;99.90;;;;;;5056078;28;19959;-69
2023/01/08 07:59:29;;;;;;;;;;;3.80;99.90;;;;;;5040602;28;19963;-69
2023/01/08 08:01:55;;;;;;;;;;;3.80;99.90;;;;;;5040445;28;19983;-69
2023/01/08 08:04:23;;;;;;;;;;;3.80;99.90;;;;;;5040473;28;19996;-69
2023/01/08 08:06:49;;;;;;;;;;;3.80;99.90;;;;;;5039924;28;19928;-69
2023/01/08 08:09:16;;;;;;;;;;;3.80;99.90;;;;;;5080908;27;19985;-69
2023/01/08 08:11:44;;;;;;;;;;;3.80;99.90;;;;;;5166179;27;19919;-69
2023/01/08 08:14:11;;;;;;;;;;;3.90;99.90;;;;;;5165934;27;20117;-69
2023/01/08 08:16:37;;;;;;;;;;;4.00;99.90;;;;;;5165247;27;19926;-69
2023/01/08 08:19:04;;;;;;;;;;;4.10;99.90;;;;;;5165984;27;19994;-69
2023/01/08 08:21:31;;;;;;;;;;;4.20;99.90;;;;;;5165102;27;19926;-70
2023/01/08 08:23:57;;;;;;;;;;;4.30;99.90;;;;;;5164969;27;19982;-68
2023/01/08 08:26:24;;;;;;;;;;;4.40;99.90;;;;;;5156346;27;19937;-69
2023/01/08 08:28:52;;;;;;;;;;;4.50;99.90;;;;;;5059620;28;20172;-68
2023/01/08 08:31:18;;;;;;;;;;;4.60;99.90;;;;;;5059982;28;19943;-69
2023/01/08 08:33:45;;;;;;;;;;;4.60;99.90;;;;;;5048179;28;19967;-69
2023/01/08 08:36:12;;;;;;;;;;;4.60;99.90;;;;;;5126874;27;19919;-69
2023/01/08 08:38:39;;;;;;;;;;;4.70;99.90;;;;;;5164462;27;20114;-69
2023/01/08 08:41:07;;;;;;;;;;;4.70;99.90;;;;;;5039610;28;20244;-69
2023/01/08 08:43:33;;;;;;;;;;;4.80;99.90;;;;;;5039987;28;19963;-69
2023/01/08 08:46:01;;;;;;;;;;;4.90;99.90;;;;;;5115886;27;19954;-68
2023/01/08 08:48:28;;;;;;;;;;;5.00;99.90;;;;;;5164024;27;20114;-69
2023/01/08 08:50:54;;;;;;;;;;;5.00;99.90;;;;;;5164624;27;19961;-68
2023/01/08 08:53:21;;;;;;;;;;;5.10;99.90;;;;;;5138339;27;19960;-68
2023/01/08 08:55:48;;;;;;;;;;;5.20;99.90;;;;;;5059477;27;19921;-68
2023/01/08 08:58:14;;;;;;;;;;;5.20;99.90;;;;;;5049772;28;19960;-68
2023/01/08 09:00:42;;;;;;;;;;;5.20;99.90;;;;;;5039186;28;19987;-68
2023/01/08 09:03:12;;;;;;;;;;;5.30;99.90;;;;;;5039076;28;20116;-67
2023/01/08 09:05:38;;;;;;;;;;;5.40;99.90;;;;;;5038975;28;19996;-69
2023/01/08 09:08:05;;;;;;;;;;;5.40;99.90;;;;;;5039894;28;19921;-68
2023/01/08 09:10:32;;;;;;;;;;;5.50;99.90;;;;;;5040546;28;20227;-69
2023/01/08 09:12:58;;;;;;;;;;;5.50;99.90;;;;;;5040699;28;19959;-69
2023/01/08 09:15:25;;;;;;;;;;;5.60;99.90;;;;;;5040474;28;19921;-68
2023/01/08 09:17:55;;;;;;;;;;;5.60;99.90;;;;;;5039756;28;19983;-68
2023/01/08 09:20:23;;;;;;;;;;;5.70;99.90;;;;;;5040246;28;19983;-68
2023/01/08 09:22:50;;;;;;;;;;;5.70;99.90;;;;;;5040381;28;19953;-69
2023/01/08 09:25:17;;;;;;;;;;;5.70;99.90;;;;;;5048095;28;19979;-69
2023/01/08 09:27:44;;;;;;;;;;;5.70;99.90;;;;;;5047004;27;20256;-68
2023/01/08 09:30:11;;;;;;;;;;;5.80;99.90;;;;;;5046216;28;19952;-69
2023/01/08 09:32:37;;;;;;;;;;;5.80;99.90;;;;;;5050672;27;20012;-69
2023/01/08 09:35:04;;;;;;;;;;;5.80;99.90;;;;;;5051366;28;19921;-69
2023/01/08 09:37:32;;;;;;;;;;;5.80;99.90;;;;;;5050708;28;20013;-68
2023/01/08 09:39:59;;;;;;;;;;;5.80;99.90;;;;;;5046804;27;19960;-69
2023/01/08 09:42:27;;;;;;;;;;;5.70;99.90;;;;;;5047272;28;19949;-68
2023/01/08 09:44:55;;;;;;;;;;;5.70;99.90;;;;;;5053632;28;19976;-68
2023/01/08 09:47:24;;;;;;;;;;;5.70;99.90;;;;;;5063856;28;19921;-68
2023/01/08 09:49:52;;;;;;;;;;;5.70;99.90;;;;;;5039305;28;19925;-69
2023/01/08 09:52:19;;;;;;;;;;;5.60;99.90;;;;;;5040070;28;20108;-68
2023/01/08 09:54:47;;;;;;;;;;;5.70;99.90;;;;;;5056767;27;19952;-69
2023/01/08 09:57:15;;;;;;;;;;;5.70;99.90;;;;;;5089770;27;19984;-69
2023/01/08 09:59:43;;;;;;;;;;;5.70;99.90;;;;;;5053134;28;19952;-68
2023/01/08 10:02:12;;;;;;;;;;;5.70;99.90;;;;;;5048732;27;19967;-69
2023/01/08 10:04:39;;;;;;;;;;;5.70;99.90;;;;;;5066278;28;19984;-68
2023/01/08 10:07:11;;;;;;;;;;;5.70;99.90;;;;;;5082656;28;19983;-68
2023/01/08 10:09:37;;;;;;;;;;;5.70;99.90;;;;;;5082798;28;19944;-68
2023/01/08 10:12:06;;;;;;;;;;;5.70;99.90;;;;;;5082746;28;19925;-69
2023/01/08 10:14:33;;;;;;;;;;;5.70;99.90;;;;;;5072509;28;19953;-69
2023/01/08 10:17:03;;;;;;;;;;;5.70;99.90;;;;;;5068273;28;19963;-69
2023/01/08 10:19:30;;;;;;;;;;;5.70;99.90;;;;;;5078498;28;20112;-68
2023/01/08 10:21:56;;;;;;;;;;;5.80;99.90;;;;;;5059423;27;19948;-69
2023/01/08 10:24:33;;;;;;;;;;;5.70;99.90;;;;;;5046097;27;19921;-69
2023/01/08 10:27:08;;;;;;;;;;;5.70;99.90;;;;;;5055914;28;19983;-69
2023/01/08 10:29:35;;;;;;;;;;;5.70;99.90;;;;;;5042732;28;19921;-68
2023/01/08 10:32:07;;;;;;;;;;;5.70;99.90;;;;;;5049821;28;19951;-69
2023/01/08 10:34:40;;;;;;;;;;;5.70;99.90;;;;;;5150092;27;19946;-69
2023/01/08 10:37:13;;;;;;;;;;;5.80;99.90;;;;;;5167461;27;19961;-70
2023/01/08 10:39:45;;;;;;;;;;;5.80;99.90;;;;;;5051760;28;19955;-68
2023/01/08 10:42:15;;;;;;;;;;;5.80;99.90;;;;;;5058463;27;19988;-69
2023/01/08 10:44:49;;;;;;;;;;;5.90;99.90;;;;;;5058529;28;19985;-68
2023/01/08 10:47:16;;;;;;;;;;;5.90;99.90;;;;;;5055602;28;19928;-68
2023/01/08 10:49:45;;;;;;;;;;;6.00;99.90;;;;;;5055726;27;20182;-68
2023/01/08 10:52:23;;;;;;;;;;;6.00;99.90;;;;;;5042213;28;19929;-68
2023/01/08 10:54:49;;;;;;;;;;;6.00;99.90;;;;;;5042411;28;19921;-69
2023/01/08 10:57:20;;;;;;;;;;;6.10;99.90;;;;;;5041945;28;19927;-69
2023/01/08 10:59:48;;;;;;;;;;;6.10;99.90;;;;;;5042545;28;19983;-68
2023/01/08 11:02:20;;;;;;;;;;;6.20;99.90;;;;;;5042416;27;19927;-68
2023/01/08 11:04:50;;;;;;;;;;;6.20;99.90;;;;;;5042048;28;19921;-69
2023/01/08 11:07:19;;;;;;;;;;;6.10;99.90;;;;;;5041900;28;19928;-68
2023/01/08 11:09:47;;;;;;;;;;;6.20;99.90;;;;;;5042081;28;19983;-68
2023/01/08 11:12:30;;;;;;;;;;;6.10;99.90;;;;;;5042680;28;20155;-70
2023/01/08 11:14:58;;;;;;;;;;;6.20;99.90;;;;;;5042166;28;19996;-69
2023/01/08 11:17:32;;;;;;;;;;;6.20;99.90;;;;;;5041398;28;19921;-69
2023/01/08 11:20:06;;;;;;;;;;;6.20;99.90;;;;;;5041682;28;19967;-68
2023/01/08 11:22:33;;;;;;;;;;;6.20;99.90;;;;;;5041891;28;19928;-68
2023/01/08 11:24:59;;;;;;;;;;;6.20;99.90;;;;;;5041891;28;19964;-68
2023/01/08 11:27:29;;;;;;;;;;;6.20;99.90;;;;;;5041401;28;19957;-68
2023/01/08 11:29:59;;;;;;;;;;;6.20;99.90;;;;;;5041334;28;19921;-68
2023/01/08 11:32:40;;;;;;;;;;;6.20;99.90;;;;;;5039275;28;20236;-68
2023/01/08 11:35:12;;;;;;;;;;;6.20;99.90;;;;;;5041499;28;20121;-68
2023/01/08 11:37:40;;;;;;;;;;;6.20;99.90;;;;;;5041241;28;19984;-68
2023/01/08 11:40:13;;;;;;;;;;;6.20;99.90;;;;;;5041772;28;19983;-68
2023/01/08 11:42:52;;;;;;;;;;;6.20;99.90;;;;;;5040343;28;19956;-70
2023/01/08 11:45:25;;;;;;;;;;;6.20;99.90;;;;;;5041323;28;19988;-68
2023/01/08 11:47:59;;;;;;;;;;;6.20;99.90;;;;;;5041122;28;19988;-68
2023/01/08 11:50:28;;;;;;;;;;;6.20;99.90;;;;;;5041520;28;20267;-68
2023/01/08 11:53:03;;;;;;;;;;;6.20;99.90;;;;;;5041603;28;19948;-70
2023/01/08 11:55:35;;;;;;;;;;;6.20;99.90;;;;;;5041577;28;19945;-69
2023/01/08 11:58:21;;;;;;;;;;;6.20;99.90;;;;;;5041747;28;20109;-71
2023/01/08 12:00:57;;;;;;;;;;;6.20;99.90;;;;;;5042531;28;19956;-71
2023/01/08 12:03:29;;;;;;;;;;;6.30;99.90;;;;;;5060879;28;19925;-69
2023/01/08 12:05:59;;;;;;;;;;;6.30;99.90;;;;;;5061489;27;19936;-71
2023/01/08 12:08:29;;;;;;;;;;;6.30;99.90;;;;;;5041051;28;19972;-70
2023/01/08 12:11:02;;;;;;;;;;;6.30;99.90;;;;;;5041633;28;19964;-70
2023/01/08 12:13:44;;;;;;;;;;;6.30;99.90;;;;;;5041252;28;19921;-70
2023/01/08 12:16:18;;;;;;;;;;;6.40;99.90;;;;;;5042088;28;20263;-70
2023/01/08 12:18:58;;;;;;;;;;;6.40;99.90;;;;;;5040835;28;19964;-70
2023/01/08 12:21:30;;;;;;;;;;;6.40;99.90;;;;;;5042707;28;19960;-70
2023/01/08 12:24:05;;;;;;;;;;;6.40;99.90;;;;;;5061284;27;19984;-70
2023/01/08 12:26:34;;;;;;;;;;;6.50;99.90;;;;;;5056373;28;20199;-70
2023/01/08 12:29:14;;;;;;;;;;;6.50;99.90;;;;;;5045827;28;20256;-70
2023/01/08 12:31:49;;;;;;;;;;;6.50;99.90;;;;;;5040845;28;20285;-70
2023/01/08 12:34:20;;;;;;;;;;;6.60;99.90;;;;;;5040245;28;19921;-70
2023/01/08 12:36:49;;;;;;;;;;;6.70;99.90;;;;;;5040398;28;19952;-70
2023/01/08 12:39:20;;;;;;;;;;;6.70;99.90;;;;;;5039871;28;19927;-70
2023/01/08 12:41:49;;;;;;;;;;;6.70;99.90;;;;;;5071000;27;20133;-70
2023/01/08 12:44:19;;;;;;;;;;;6.80;99.90;;;;;;5059045;27;19953;-70
2023/01/08 12:46:46;;;;;;;;;;;6.80;99.90;;;;;;5050702;28;19921;-71
2023/01/08 12:49:14;;;;;;;;;;;6.80;99.90;;;;;;5058995;28;19941;-70
2023/01/08 12:51:49;;;;;;;;;;;6.90;99.90;;;;;;5040657;28;19921;-70
2023/01/08 12:54:22;;;;;;;;;;;6.90;99.90;;;;;;5047242;28;19921;-70
2023/01/08 12:56:50;;;;;;;;;;;6.90;99.90;;;;;;5060141;28;19927;-70
2023/01/08 12:59:28;;;;;;;;;;;7.00;99.90;;;;;;5060454;28;20149;-70
2023/01/08 13:01:57;;;;;;;;;;;7.00;99.90;;;;;;5060546;28;19948;-70
2023/01/08 13:04:24;;;;;;;;;;;7.10;99.90;;;;;;5056834;28;19955;-70
2023/01/08 13:06:56;;;;;;;;;;;7.10;99.90;;;;;;5059938;27;19952;-69
2023/01/08 13:09:26;;;;;;;;;;;7.20;99.90;;;;;;5060438;27;20231;-70
2023/01/08 13:11:54;;;;;;;;;;;7.20;99.90;;;;;;5060594;27;19956;-70
2023/01/08 13:14:20;;;;;;;;;;;7.20;99.90;;;;;;5060743;27;19921;-70
2023/01/08 13:16:48;;;;;;;;;;;7.20;99.90;;;;;;5059887;27;19927;-70
2023/01/08 13:19:26;;;;;;;;;;;7.20;99.90;;;;;;5054723;27;20272;-70
2023/01/08 13:21:55;;;;;;;;;;;7.20;99.90;;;;;;5072129;27;19986;-70
2023/01/08 13:24:28;;;;;;;;;;;7.30;99.90;;;;;;5050705;28;19928;-70
2023/01/08 13:26:55;;;;;;;;;;;7.30;99.90;;;;;;5102969;27;19927;-70
2023/01/08 13:29:27;;;;;;;;;;;7.30;99.90;;;;;;5039872;28;19952;-71
2023/01/08 13:31:53;;;;;;;;;;;7.30;99.90;;;;;;5040181;28;19921;-70
2023/01/08 13:34:22;;;;;;;;;;;7.30;99.90;;;;;;5042988;28;19991;-70
2023/01/08 13:36:57;;;;;;;;;;;7.40;99.90;;;;;;5042834;28;19954;-70
2023/01/08 13:39:24;;;;;;;;;;;7.40;99.90;;;;;;5043655;28;19964;-70
2023/01/08 13:41:58;;;;;;;;;;;7.40;99.90;;;;;;5043937;28;19962;-70
2023/01/08 13:44:26;;;;;;;;;;;7.40;99.90;;;;;;5043242;28;19953;-70
2023/01/08 13:46:54;;;;;;;;;;;7.40;99.90;;;;;;5113079;27;19987;-69
2023/01/08 13:49:25;;;;;;;;;;;7.40;99.90;;;;;;5147981;27;19975;-70
2023/01/08 13:51:52;;;;;;;;;;;7.50;99.90;;;;;;5091767;27;20008;-69
2023/01/08 13:54:21;;;;;;;;;;;7.50;99.90;;;;;;5063466;28;20231;-71
2023/01/08 13:56:51;;;;;;;;;;;7.50;99.90;;;;;;5062546;28;20004;-70
2023/01/08 13:59:21;;;;;;;;;;;7.50;99.90;;;;;;5046586;27;20086;-70
2023/01/08 14:01:54;;;;;;;;;;;7.60;99.90;;;;;;5043516;28;19921;-70
2023/01/08 14:04:21;;;;;;;;;;;7.50;99.90;;;;;;5052827;28;19979;-70
2023/01/08 14:06:48;;;;;;;;;;;7.50;99.90;;;;;;5062545;27;19963;-70
2023/01/08 14:09:20;;;;;;;;;;;7.60;99.90;;;;;;5063369;27;20251;-71
2023/01/08 14:11:50;;;;;;;;;;;7.60;99.90;;;;;;5063424;27;19984;-70
2023/01/08 14:14:17;;;;;;;;;;;7.60;99.90;;;;;;5063177;28;19924;-70
2023/01/08 14:16:44;;;;;;;;;;;7.60;99.90;;;;;;5049078;28;19963;-70
2023/01/08 14:19:18;;;;;;;;;;;7.60;99.90;;;;;;5060802;27;19980;-70
2023/01/08 14:21:46;;;;;;;;;;;7.50;99.90;;;;;;5057994;28;19984;-70
2023/01/08 14:24:15;;;;;;;;;;;7.60;99.90;;;;;;5057816;28;19984;-70
2023/01/08 14:26:41;;;;;;;;;;;7.50;99.90;;;;;;5047508;28;19928;-71
2023/01/08 14:29:14;;;;;;;;;;;7.60;99.90;;;;;;5049183;28;19952;-70
2023/01/08 14:31:45;;;;;;;;;;;7.50;99.90;;;;;;5043150;28;20109;-70
2023/01/08 14:34:13;;;;;;;;;;;7.50;99.90;;;;;;5045418;28;19976;-70
2023/01/08 14:36:40;;;;;;;;;;;7.50;99.90;;;;;;5094967;27;20106;-70
2023/01/08 14:39:11;;;;;;;;;;;7.50;99.90;;;;;;5062522;28;19931;-70
2023/01/08 14:44:25;;;;;;;;;;;7.50;99.90;;;;;;5061350;28;19955;-71